Time;durP1;ratioP1;P1;durP2;ratioP2;P2;SDS_P1;SDS_P2;PMS_P1;PMS_P2;Temp;Humidity;BMP_temperature;BMP_pressure;BME280_temperature;BME280_humidity;BME280_pressure;Samples;Min_cycle;Max_cycle;Signal;HPM_P1;HPM_P2
2021/06/08 00:00:46;;;;;;;;;;;15.50;99.90;;;;;;6190165;23;20308;-80
2021/06/08 00:03:14;;;;;;;;;;;15.50;99.90;;;;;;6164598;23;19920;-79
2021/06/08 00:05:42;;;;;;;;;;;15.50;99.90;;;;;;6215015;23;19943;-79
2021/06/08 00:08:10;;;;;;;;;;;15.60;99.90;;;;;;6198798;23;19920;-79
2021/06/08 00:10:37;;;;;;;;;;;15.60;99.90;;;;;;6212297;23;19957;-80
2021/06/08 00:13:05;;;;;;;;;;;15.60;99.90;;;;;;6210210;23;19926;-79
2021/06/08 00:15:33;;;;;;;;;;;15.60;99.90;;;;;;6209369;23;19919;-79
2021/06/08 00:18:01;;;;;;;;;;;15.70;99.90;;;;;;6190122;23;20403;-80
2021/06/08 00:20:29;;;;;;;;;;;15.70;99.90;;;;;;6189074;23;19951;-79
2021/06/08 00:22:57;;;;;;;;;;;15.60;99.90;;;;;;6189814;23;19958;-80
2021/06/08 00:25:25;;;;;;;;;;;15.60;99.90;;;;;;6165242;23;19920;-80
2021/06/08 00:27:53;;;;;;;;;;;15.50;99.90;;;;;;6213897;23;19924;-79
2021/06/08 00:30:21;;;;;;;;;;;15.50;99.90;;;;;;6214095;23;20300;-79
2021/06/08 00:32:53;;;;;;;;;;;15.40;99.90;;;;;;6166025;23;20272;-79
2021/06/08 00:35:21;;;;;;;;;;;15.40;99.90;;;;;;6165240;23;20261;-79
2021/06/08 00:37:48;;;;;;;;;;;15.40;99.90;;;;;;6189541;23;19994;-79
2021/06/08 00:40:16;;;;;;;;;;;15.40;99.90;;;;;;6189141;23;20008;-79
2021/06/08 00:42:45;;;;;;;;;;;15.40;99.90;;;;;;6189714;23;19924;-80
2021/06/08 00:45:13;;;;;;;;;;;15.40;99.90;;;;;;6189038;23;19998;-80
2021/06/08 00:47:45;;;;;;;;;;;15.40;99.90;;;;;;6213422;23;19970;-79
2021/06/08 00:50:13;;;;;;;;;;;15.40;99.90;;;;;;6189340;23;19920;-79
2021/06/08 00:52:40;;;;;;;;;;;15.40;99.90;;;;;;6189464;23;19920;-79
2021/06/08 00:55:10;;;;;;;;;;;15.30;99.90;;;;;;6189281;23;19980;-79
2021/06/08 00:57:38;;;;;;;;;;;15.30;99.90;;;;;;6189440;23;20132;-80
2021/06/08 01:00:06;;;;;;;;;;;15.30;99.90;;;;;;6164181;23;19974;-79
2021/06/08 01:02:38;;;;;;;;;;;15.20;99.90;;;;;;6212601;23;19920;-80
2021/06/08 01:05:08;;;;;;;;;;;15.20;99.90;;;;;;6164396;23;20314;-80
2021/06/08 01:07:36;;;;;;;;;;;15.20;99.90;;;;;;6213620;23;19947;-79
2021/06/08 01:10:04;;;;;;;;;;;15.20;99.90;;;;;;6188864;23;20480;-79
2021/06/08 01:12:32;;;;;;;;;;;15.20;99.90;;;;;;6188339;23;19951;-79
2021/06/08 01:15:05;;;;;;;;;;;15.20;99.90;;;;;;6165719;23;20025;-80
2021/06/08 01:17:32;;;;;;;;;;;15.10;99.90;;;;;;6189120;23;20345;-79
2021/06/08 01:20:06;;;;;;;;;;;15.20;99.90;;;;;;6165226;23;19920;-79
2021/06/08 01:22:34;;;;;;;;;;;15.20;99.90;;;;;;6189200;23;20345;-79
2021/06/08 01:25:03;;;;;;;;;;;15.20;99.90;;;;;;6189154;23;19940;-80
2021/06/08 01:27:31;;;;;;;;;;;15.20;99.90;;;;;;6189154;23;19998;-80
2021/06/08 01:29:59;;;;;;;;;;;15.20;99.90;;;;;;6188888;23;19962;-80
2021/06/08 01:32:28;;;;;;;;;;;15.20;99.90;;;;;;6214240;23;19982;-79
2021/06/08 01:34:56;;;;;;;;;;;15.20;99.90;;;;;;6189448;23;19919;-80
2021/06/08 01:37:24;;;;;;;;;;;15.20;99.90;;;;;;6189205;23;19998;-79
2021/06/08 01:39:52;;;;;;;;;;;15.20;99.90;;;;;;6189772;23;19919;-79
2021/06/08 01:42:20;;;;;;;;;;;15.30;99.90;;;;;;6190645;23;19923;-80
2021/06/08 01:44:53;;;;;;;;;;;15.30;99.90;;;;;;6191058;23;19920;-80
2021/06/08 01:47:25;;;;;;;;;;;15.30;99.90;;;;;;6191628;23;20268;-79
2021/06/08 01:49:53;;;;;;;;;;;15.30;99.90;;;;;;6190434;23;19943;-80
2021/06/08 01:52:26;;;;;;;;;;;15.30;99.90;;;;;;6191458;23;20337;-80
2021/06/08 01:55:02;;;;;;;;;;;15.30;99.90;;;;;;6166775;23;19920;-80
2021/06/08 01:57:47;;;;;;;;;;;15.30;99.90;;;;;;6191311;23;19978;-80
2021/06/08 02:00:23;;;;;;;;;;;15.30;99.90;;;;;;6190566;23;19920;-79
2021/06/08 02:02:57;;;;;;;;;;;15.30;99.90;;;;;;6217472;23;19920;-79
2021/06/08 02:05:36;;;;;;;;;;;15.30;99.90;;;;;;6191120;23;19955;-79
2021/06/08 02:08:22;;;;;;;;;;;15.20;99.90;;;;;;6216169;23;19920;-80
2021/06/08 02:10:56;;;;;;;;;;;15.30;99.90;;;;;;6190548;23;19920;-80
2021/06/08 02:13:24;;;;;;;;;;;15.30;99.90;;;;;;6166262;23;19966;-80
2021/06/08 02:15:57;;;;;;;;;;;15.30;99.90;;;;;;6166519;23;19920;-79
2021/06/08 02:18:28;;;;;;;;;;;15.30;99.90;;;;;;6166332;23;19982;-80
2021/06/08 02:20:57;;;;;;;;;;;15.30;99.90;;;;;;6190460;23;19926;-79
2021/06/08 02:23:24;;;;;;;;;;;15.20;99.90;;;;;;6190924;23;20373;-80
2021/06/08 02:25:57;;;;;;;;;;;15.30;99.90;;;;;;6167415;23;20003;-79
2021/06/08 02:28:27;;;;;;;;;;;15.30;99.90;;;;;;6190929;23;19947;-80
2021/06/08 02:30:56;;;;;;;;;;;15.20;99.90;;;;;;6166376;23;19920;-80
2021/06/08 02:33:25;;;;;;;;;;;15.20;99.90;;;;;;6190633;23;19927;-79
2021/06/08 02:35:54;;;;;;;;;;;15.20;99.90;;;;;;6190977;23;20234;-79
2021/06/08 02:38:26;;;;;;;;;;;15.20;99.90;;;;;;6190831;23;19919;-80
2021/06/08 02:40:54;;;;;;;;;;;15.20;99.90;;;;;;6215073;23;19927;-79
2021/06/08 02:43:24;;;;;;;;;;;15.30;99.90;;;;;;6190239;23;19920;-79
2021/06/08 02:45:52;;;;;;;;;;;15.30;99.90;;;;;;6190469;23;19920;-79
2021/06/08 02:48:25;;;;;;;;;;;15.30;99.90;;;;;;6214799;23;19994;-80
2021/06/08 02:50:54;;;;;;;;;;;15.30;99.90;;;;;;6190363;23;20272;-80
2021/06/08 02:53:22;;;;;;;;;;;15.30;99.90;;;;;;6190757;23;19920;-80
2021/06/08 02:55:55;;;;;;;;;;;15.30;99.90;;;;;;6190286;23;20407;-80
2021/06/08 02:58:28;;;;;;;;;;;15.30;99.90;;;;;;6190123;23;19927;-79
2021/06/08 03:00:55;;;;;;;;;;;15.30;99.90;;;;;;6215870;23;20300;-79
2021/06/08 03:03:28;;;;;;;;;;;15.30;99.90;;;;;;6190302;23;20250;-79
2021/06/08 03:06:03;;;;;;;;;;;15.30;99.90;;;;;;6215631;23;19924;-80
2021/06/08 03:08:44;;;;;;;;;;;15.30;99.90;;;;;;6190646;23;20006;-79
2021/06/08 03:11:16;;;;;;;;;;;15.30;99.90;;;;;;6190373;23;20242;-80
2021/06/08 03:13:43;;;;;;;;;;;15.30;99.90;;;;;;6190298;23;19999;-79
2021/06/08 03:16:14;;;;;;;;;;;15.40;99.90;;;;;;6192450;23;19943;-77
2021/06/08 03:18:47;;;;;;;;;;;15.40;99.90;;;;;;6212642;23;20002;-77
2021/06/08 03:21:18;;;;;;;;;;;15.40;99.90;;;;;;6189060;23;19986;-78
2021/06/08 03:23:48;;;;;;;;;;;15.40;99.90;;;;;;6213871;23;19971;-77
2021/06/08 03:26:20;;;;;;;;;;;15.40;99.90;;;;;;6232774;23;19939;-78
2021/06/08 03:28:49;;;;;;;;;;;15.40;99.90;;;;;;6210812;23;19920;-78
2021/06/08 03:31:21;;;;;;;;;;;15.40;99.90;;;;;;6235605;23;19920;-78
2021/06/08 03:33:54;;;;;;;;;;;15.40;99.90;;;;;;6222762;23;19927;-78
2021/06/08 03:36:22;;;;;;;;;;;15.50;99.90;;;;;;6188354;23;19970;-78
2021/06/08 03:38:55;;;;;;;;;;;15.50;99.90;;;;;;6213435;23;20304;-78
2021/06/08 03:41:22;;;;;;;;;;;15.50;99.90;;;;;;6187915;23;20001;-78
2021/06/08 03:43:50;;;;;;;;;;;15.50;99.90;;;;;;6188088;23;19923;-78
2021/06/08 03:46:25;;;;;;;;;;;15.50;99.90;;;;;;6188617;23;19956;-79
2021/06/08 03:48:52;;;;;;;;;;;15.50;99.90;;;;;;6214787;23;19936;-78
2021/06/08 03:51:19;;;;;;;;;;;15.50;99.90;;;;;;6187625;23;20388;-78
2021/06/08 03:53:47;;;;;;;;;;;15.50;99.90;;;;;;6187609;23;20364;-78
2021/06/08 03:56:15;;;;;;;;;;;15.50;99.90;;;;;;6187690;23;20238;-78
2021/06/08 03:58:47;;;;;;;;;;;15.50;99.90;;;;;;6187700;23;20010;-78
2021/06/08 04:01:19;;;;;;;;;;;15.50;99.90;;;;;;6163291;23;20002;-78
2021/06/08 04:03:47;;;;;;;;;;;15.50;99.90;;;;;;6187348;23;20257;-78
2021/06/08 04:06:19;;;;;;;;;;;15.60;99.90;;;;;;6211454;23;19924;-78
2021/06/08 04:08:46;;;;;;;;;;;15.60;99.90;;;;;;6187403;23;19947;-78
2021/06/08 04:11:13;;;;;;;;;;;15.60;99.90;;;;;;6186947;23;19924;-79
2021/06/08 04:13:45;;;;;;;;;;;15.60;99.90;;;;;;6211219;23;20421;-78
2021/06/08 04:16:12;;;;;;;;;;;15.60;99.90;;;;;;6187652;23;19985;-78
2021/06/08 04:18:43;;;;;;;;;;;15.70;99.90;;;;;;6187203;23;19947;-78
2021/06/08 04:21:10;;;;;;;;;;;15.60;99.90;;;;;;6186785;23;19999;-77
2021/06/08 04:23:37;;;;;;;;;;;15.60;99.90;;;;;;6213676;23;19935;-77
2021/06/08 04:26:04;;;;;;;;;;;15.60;99.90;;;;;;6213637;23;19944;-77
2021/06/08 04:28:30;;;;;;;;;;;15.60;99.90;;;;;;6186155;23;20723;-78
2021/06/08 04:31:02;;;;;;;;;;;15.60;99.90;;;;;;6208570;23;19934;-77
2021/06/08 04:33:29;;;;;;;;;;;15.70;99.90;;;;;;6187388;23;19955;-78
2021/06/08 04:36:00;;;;;;;;;;;15.70;99.90;;;;;;6212038;23;19994;-78
2021/06/08 04:38:27;;;;;;;;;;;15.70;99.90;;;;;;6187553;23;20274;-77
2021/06/08 04:40:54;;;;;;;;;;;15.70;99.90;;;;;;6212231;23;19955;-77
2021/06/08 04:43:25;;;;;;;;;;;15.60;99.90;;;;;;6187883;23;20318;-78
2021/06/08 04:46:00;;;;;;;;;;;15.60;99.90;;;;;;6213218;23;19955;-78
2021/06/08 04:48:27;;;;;;;;;;;15.60;99.90;;;;;;6187879;23;19929;-78
2021/06/08 04:50:53;;;;;;;;;;;15.60;99.90;;;;;;6185026;23;19931;-78
2021/06/08 04:53:25;;;;;;;;;;;15.60;99.90;;;;;;6186960;23;20053;-78
2021/06/08 04:55:52;;;;;;;;;;;15.70;99.90;;;;;;6214422;23;19952;-80
2021/06/08 04:58:21;;;;;;;;;;;15.70;99.90;;;;;;6188375;23;20005;-79
2021/06/08 05:00:55;;;;;;;;;;;15.70;99.90;;;;;;6188776;23;19920;-79
2021/06/08 05:03:25;;;;;;;;;;;15.70;99.90;;;;;;6189920;23;19998;-80
2021/06/08 05:05:53;;;;;;;;;;;15.70;99.90;;;;;;6184881;23;19920;-79
2021/06/08 05:08:31;;;;;;;;;;;15.70;99.90;;;;;;6183451;23;19920;-79
2021/06/08 05:11:04;;;;;;;;;;;15.80;99.90;;;;;;6164680;23;19920;-80
2021/06/08 05:13:33;;;;;;;;;;;15.80;99.90;;;;;;6190286;23;19920;-79
2021/06/08 05:16:06;;;;;;;;;;;15.80;99.90;;;;;;6194342;23;19920;-79
2021/06/08 05:18:36;;;;;;;;;;;15.80;99.90;;;;;;6189826;23;19947;-79
2021/06/08 05:21:05;;;;;;;;;;;15.80;99.90;;;;;;6187408;23;19994;-79
2021/06/08 05:23:34;;;;;;;;;;;15.80;99.90;;;;;;6189532;23;19966;-79
2021/06/08 05:26:01;;;;;;;;;;;15.90;99.90;;;;;;6189999;23;20397;-79
2021/06/08 05:28:29;;;;;;;;;;;16.00;99.90;;;;;;6189515;23;20297;-79
2021/06/08 05:30:56;;;;;;;;;;;16.00;99.90;;;;;;6193780;23;20319;-77
2021/06/08 05:33:23;;;;;;;;;;;16.00;99.90;;;;;;6219121;23;19920;-77
2021/06/08 05:35:54;;;;;;;;;;;16.00;99.90;;;;;;6191128;23;19971;-77
2021/06/08 05:38:39;;;;;;;;;;;16.00;99.90;;;;;;6194313;23;19958;-77
2021/06/08 05:41:07;;;;;;;;;;;16.00;99.90;;;;;;6194609;23;19920;-77
2021/06/08 05:43:35;;;;;;;;;;;16.00;99.90;;;;;;6194781;23;19970;-77
2021/06/08 05:46:02;;;;;;;;;;;16.00;99.90;;;;;;6194902;23;19927;-77
2021/06/08 05:48:29;;;;;;;;;;;16.00;99.90;;;;;;6195708;23;19924;-77
2021/06/08 05:51:01;;;;;;;;;;;16.00;99.90;;;;;;6195232;23;19924;-77
2021/06/08 05:53:35;;;;;;;;;;;16.00;99.90;;;;;;6219613;23;19942;-77
2021/06/08 05:56:04;;;;;;;;;;;16.00;99.90;;;;;;6220179;23;20407;-77
2021/06/08 05:58:31;;;;;;;;;;;16.00;99.90;;;;;;6194338;23;20042;-77
2021/06/08 06:00:58;;;;;;;;;;;16.00;99.90;;;;;;6220302;23;19923;-77
2021/06/08 06:03:26;;;;;;;;;;;16.10;99.90;;;;;;6220772;23;19927;-77
2021/06/08 06:05:55;;;;;;;;;;;16.10;99.90;;;;;;6195595;23;19927;-77
2021/06/08 06:08:23;;;;;;;;;;;16.20;99.90;;;;;;6194779;23;19920;-77
2021/06/08 06:10:50;;;;;;;;;;;16.20;99.90;;;;;;6193447;23;19951;-77
2021/06/08 06:13:22;;;;;;;;;;;16.20;99.90;;;;;;6194021;23;20281;-78
2021/06/08 06:15:49;;;;;;;;;;;16.20;99.90;;;;;;6193963;23;19985;-77
2021/06/08 06:18:17;;;;;;;;;;;16.20;99.90;;;;;;6195836;23;19927;-77
2021/06/08 06:20:45;;;;;;;;;;;16.20;99.90;;;;;;6193839;23;19919;-77
2021/06/08 06:23:15;;;;;;;;;;;16.20;99.90;;;;;;6195309;23;19920;-77
2021/06/08 06:25:42;;;;;;;;;;;16.30;99.90;;;;;;6194796;23;19924;-77
2021/06/08 06:28:13;;;;;;;;;;;16.40;99.90;;;;;;6194333;23;20368;-77
2021/06/08 06:30:40;;;;;;;;;;;16.40;99.90;;;;;;6193189;23;19948;-77
2021/06/08 06:33:07;;;;;;;;;;;16.50;99.90;;;;;;6194459;23;19920;-77
2021/06/08 06:35:34;;;;;;;;;;;16.50;99.90;;;;;;6194353;23;19950;-77
2021/06/08 06:38:06;;;;;;;;;;;16.50;99.90;;;;;;6193940;23;20350;-77
2021/06/08 06:40:41;;;;;;;;;;;16.50;99.90;;;;;;6193298;23;20352;-77
2021/06/08 06:43:17;;;;;;;;;;;16.60;99.90;;;;;;6205205;23;19947;-78
2021/06/08 06:45:44;;;;;;;;;;;16.60;99.90;;;;;;6208271;23;19920;-78
2021/06/08 06:48:14;;;;;;;;;;;16.70;99.90;;;;;;6231433;23;19928;-77
2021/06/08 06:50:42;;;;;;;;;;;16.70;99.90;;;;;;6201197;23;19924;-77
2021/06/08 06:53:10;;;;;;;;;;;16.70;99.90;;;;;;6192623;23;19936;-77
2021/06/08 06:55:37;;;;;;;;;;;16.80;99.90;;;;;;6191635;23;19939;-77
2021/06/08 06:58:04;;;;;;;;;;;16.90;99.90;;;;;;6192858;23;19919;-77
2021/06/08 07:00:31;;;;;;;;;;;17.00;99.90;;;;;;6191253;23;19963;-77
2021/06/08 07:02:58;;;;;;;;;;;17.10;99.90;;;;;;6191754;23;19924;-77
2021/06/08 07:05:27;;;;;;;;;;;17.10;99.90;;;;;;6217625;23;19920;-77
2021/06/08 07:07:55;;;;;;;;;;;17.20;99.90;;;;;;6192111;23;19951;-77
2021/06/08 07:10:26;;;;;;;;;;;17.20;99.90;;;;;;6191834;23;19920;-77
2021/06/08 07:13:03;;;;;;;;;;;17.30;99.90;;;;;;6192504;23;20003;-77
2021/06/08 07:15:30;;;;;;;;;;;17.30;99.90;;;;;;6191273;23;19920;-77
2021/06/08 07:17:57;;;;;;;;;;;17.30;99.90;;;;;;6191982;23;19958;-77
2021/06/08 07:20:24;;;;;;;;;;;17.40;99.90;;;;;;6190438;23;20345;-77
2021/06/08 07:22:51;;;;;;;;;;;17.50;99.90;;;;;;6215877;23;19931;-77
2021/06/08 07:25:19;;;;;;;;;;;17.50;99.90;;;;;;6192886;23;19926;-77
2021/06/08 07:27:52;;;;;;;;;;;17.50;99.90;;;;;;6192650;23;19936;-77
2021/06/08 07:30:19;;;;;;;;;;;17.60;99.90;;;;;;6216470;23;19920;-77
2021/06/08 07:33:04;;;;;;;;;;;17.70;99.90;;;;;;6192218;23;19968;-77
2021/06/08 07:35:34;;;;;;;;;;;17.80;99.90;;;;;;6192208;23;19966;-77
2021/06/08 07:38:07;;;;;;;;;;;17.80;99.90;;;;;;6192051;23;20233;-77
2021/06/08 07:40:39;;;;;;;;;;;17.80;99.90;;;;;;6191459;23;19953;-78
2021/06/08 07:43:07;;;;;;;;;;;17.90;99.90;;;;;;6191788;23;19919;-77
2021/06/08 07:45:49;;;;;;;;;;;18.00;99.90;;;;;;6213162;23;19935;-77
2021/06/08 07:48:18;;;;;;;;;;;18.20;99.90;;;;;;6218033;23;20369;-77
2021/06/08 07:50:49;;;;;;;;;;;18.30;99.90;;;;;;6217216;23;19970;-77
2021/06/08 07:53:22;;;;;;;;;;;18.30;99.90;;;;;;6191069;23;19943;-77
2021/06/08 07:55:49;;;;;;;;;;;18.30;99.90;;;;;;6192513;23;19920;-77
2021/06/08 07:58:23;;;;;;;;;;;18.40;99.90;;;;;;6190918;23;19920;-77
2021/06/08 08:00:50;;;;;;;;;;;18.40;99.90;;;;;;6167239;23;19952;-77
2021/06/08 08:03:27;;;;;;;;;;;18.50;99.90;;;;;;6218285;23;20345;-77
2021/06/08 08:06:01;;;;;;;;;;;18.40;99.90;;;;;;6216319;23;19951;-77
2021/06/08 08:08:33;;;;;;;;;;;18.50;99.90;;;;;;6188398;23;19923;-77
2021/06/08 08:11:00;;;;;;;;;;;18.50;99.90;;;;;;6189034;23;19985;-77
2021/06/08 08:13:30;;;;;;;;;;;18.50;99.90;;;;;;6190215;23;19971;-77
2021/06/08 08:16:05;;;;;;;;;;;18.50;99.90;;;;;;6189039;23;20140;-77
2021/06/08 08:18:36;;;;;;;;;;;18.50;99.90;;;;;;6190468;23;19973;-77
2021/06/08 08:21:04;;;;;;;;;;;18.60;99.90;;;;;;6190643;23;19931;-78
2021/06/08 08:23:36;;;;;;;;;;;18.70;99.90;;;;;;6189936;23;19920;-77
2021/06/08 08:26:05;;;;;;;;;;;18.70;99.90;;;;;;6217051;23;19920;-77
2021/06/08 08:28:36;;;;;;;;;;;18.80;99.90;;;;;;6190187;23;19954;-77
2021/06/08 08:31:04;;;;;;;;;;;18.80;99.90;;;;;;6188691;23;19923;-77
2021/06/08 08:33:31;;;;;;;;;;;19.00;99.90;;;;;;6187645;23;19920;-77
2021/06/08 08:36:03;;;;;;;;;;;18.90;99.90;;;;;;6210455;23;19955;-78
2021/06/08 08:38:30;;;;;;;;;;;18.90;99.90;;;;;;6188375;23;19947;-77
2021/06/08 08:41:02;;;;;;;;;;;19.00;99.90;;;;;;6213737;23;20320;-77
2021/06/08 08:43:29;;;;;;;;;;;19.00;99.90;;;;;;6190394;23;19924;-77
2021/06/08 08:45:56;;;;;;;;;;;19.10;99.90;;;;;;6191013;23;19951;-77
2021/06/08 08:48:28;;;;;;;;;;;19.20;99.90;;;;;;6215878;23;19972;-77
2021/06/08 08:50:55;;;;;;;;;;;19.20;99.90;;;;;;6167833;23;19927;-77
2021/06/08 08:53:22;;;;;;;;;;;19.30;99.90;;;;;;6167980;23;19920;-77
2021/06/08 08:55:49;;;;;;;;;;;19.40;99.90;;;;;;6190687;23;19919;-78
2021/06/08 08:58:16;;;;;;;;;;;19.60;99.90;;;;;;6194511;23;19942;-77
2021/06/08 09:00:44;;;;;;;;;;;19.70;99.90;;;;;;6217783;23;19982;-77
2021/06/08 09:03:12;;;;;;;;;;;19.90;99.90;;;;;;6167506;23;19973;-77
2021/06/08 09:05:40;;;;;;;;;;;20.00;99.90;;;;;;6194385;23;19920;-78
2021/06/08 09:08:07;;;;;;;;;;;20.20;99.90;;;;;;6194359;23;20015;-78
2021/06/08 09:10:35;;;;;;;;;;;20.30;99.90;;;;;;6193818;23;20349;-77
2021/06/08 09:13:02;;;;;;;;;;;20.40;99.90;;;;;;6193265;23;19958;-77
2021/06/08 09:15:30;;;;;;;;;;;20.40;99.90;;;;;;6192101;23;19985;-78
2021/06/08 09:17:57;;;;;;;;;;;20.40;99.90;;;;;;6194958;23;19927;-77
2021/06/08 09:20:30;;;;;;;;;;;20.40;99.90;;;;;;6193638;23;19963;-78
2021/06/08 09:22:58;;;;;;;;;;;20.30;99.90;;;;;;6191076;23;19947;-77
2021/06/08 09:25:36;;;;;;;;;;;20.20;99.90;;;;;;6215192;23;19920;-77
2021/06/08 09:28:12;;;;;;;;;;;20.10;99.90;;;;;;6166566;23;20006;-78
2021/06/08 09:30:44;;;;;;;;;;;20.10;99.90;;;;;;6166856;23;20007;-78
2021/06/08 09:33:21;;;;;;;;;;;20.20;99.90;;;;;;6190490;23;19959;-79
2021/06/08 09:36:08;;;;;;;;;;;20.20;99.90;;;;;;6190395;23;20242;-79
2021/06/08 09:38:37;;;;;;;;;;;20.20;99.90;;;;;;6193266;23;20300;-78
2021/06/08 09:41:10;;;;;;;;;;;20.20;99.90;;;;;;6167124;23;19924;-79
2021/06/08 09:43:49;;;;;;;;;;;20.20;99.90;;;;;;6191673;23;19971;-79
2021/06/08 09:46:16;;;;;;;;;;;20.20;99.90;;;;;;6215972;23;19943;-79
2021/06/08 09:48:50;;;;;;;;;;;20.30;99.90;;;;;;6191663;23;20404;-79
2021/06/08 09:51:17;;;;;;;;;;;20.30;99.90;;;;;;6191410;23;20260;-79
2021/06/08 09:53:44;;;;;;;;;;;20.50;99.90;;;;;;6191058;23;20015;-80
2021/06/08 09:56:11;;;;;;;;;;;20.80;99.90;;;;;;6191079;23;19920;-79
2021/06/08 09:58:42;;;;;;;;;;;20.90;99.90;;;;;;6191079;23;19947;-79
2021/06/08 10:01:11;;;;;;;;;;;21.10;99.90;;;;;;6192887;23;20002;-80
2021/06/08 10:03:58;;;;;;;;;;;21.20;99.90;;;;;;6195708;23;19927;-80
2021/06/08 10:06:44;;;;;;;;;;;21.20;99.90;;;;;;6220805;23;19920;-80
2021/06/08 10:09:12;;;;;;;;;;;21.10;99.90;;;;;;6218950;23;20341;-79
2021/06/08 10:11:45;;;;;;;;;;;21.10;99.90;;;;;;6191111;23;20006;-79
2021/06/08 10:14:18;;;;;;;;;;;21.00;99.90;;;;;;6191050;23;19947;-79
2021/06/08 10:16:57;;;;;;;;;;;21.10;99.90;;;;;;6191549;23;19974;-79
2021/06/08 10:19:25;;;;;;;;;;;21.10;99.90;;;;;;6217699;23;19951;-79
2021/06/08 10:21:52;;;;;;;;;;;21.20;99.90;;;;;;6190651;23;19927;-79
2021/06/08 10:24:25;;;;;;;;;;;21.20;99.90;;;;;;6191200;23;20003;-79
2021/06/08 10:26:58;;;;;;;;;;;21.40;99.90;;;;;;6217158;23;19920;-79
2021/06/08 10:29:26;;;;;;;;;;;21.60;99.90;;;;;;6190476;23;19920;-79
2021/06/08 10:31:54;;;;;;;;;;;21.60;99.90;;;;;;6190386;23;20341;-79
2021/06/08 10:34:20;;;;;;;;;;;21.80;99.90;;;;;;6215063;23;19955;-79
2021/06/08 10:36:53;;;;;;;;;;;22.00;99.90;;;;;;6213578;23;19947;-78
2021/06/08 10:39:25;;;;;;;;;;;22.30;99.90;;;;;;6189363;23;19920;-80
2021/06/08 10:41:52;;;;;;;;;;;22.40;99.90;;;;;;6213598;23;19978;-78
2021/06/08 10:44:23;;;;;;;;;;;22.50;99.90;;;;;;6190151;23;20007;-79
2021/06/08 10:47:02;;;;;;;;;;;22.70;99.90;;;;;;6189798;23;19924;-78
2021/06/08 10:49:38;;;;;;;;;;;22.80;99.90;;;;;;6212656;23;19962;-78
2021/06/08 10:52:09;;;;;;;;;;;22.90;99.90;;;;;;6189020;23;19920;-79
2021/06/08 10:54:37;;;;;;;;;;;22.90;99.90;;;;;;6189241;23;19959;-78
2021/06/08 10:57:16;;;;;;;;;;;22.90;99.90;;;;;;6188533;23;19951;-78
2021/06/08 10:59:43;;;;;;;;;;;22.90;99.90;;;;;;6216023;23;19958;-78
2021/06/08 11:02:33;;;;;;;;;;;22.90;99.90;;;;;;6187589;23;19920;-78
2021/06/08 11:05:00;;;;;;;;;;;23.00;99.90;;;;;;6164238;23;20365;-78
2021/06/08 11:07:42;;;;;;;;;;;23.20;99.90;;;;;;6189274;23;20002;-79
2021/06/08 11:10:24;;;;;;;;;;;23.40;99.90;;;;;;6164163;23;19943;-78
2021/06/08 11:13:10;;;;;;;;;;;23.50;99.90;;;;;;6163522;23;19920;-79
2021/06/08 11:15:48;;;;;;;;;;;23.60;99.90;;;;;;6190556;23;19970;-78
2021/06/08 11:18:20;;;;;;;;;;;23.60;99.90;;;;;;6214565;23;19942;-79
2021/06/08 11:21:02;;;;;;;;;;;23.50;99.90;;;;;;6164976;23;20304;-78
2021/06/08 11:23:32;;;;;;;;;;;23.60;99.90;;;;;;6165330;23;19981;-79
2021/06/08 11:25:59;;;;;;;;;;;23.60;99.90;;;;;;6191210;23;19919;-79
2021/06/08 11:28:44;;;;;;;;;;;23.70;99.90;;;;;;6190180;23;19974;-78
2021/06/08 11:31:11;;;;;;;;;;;23.70;99.90;;;;;;6190132;23;20003;-78
2021/06/08 11:33:42;;;;;;;;;;;23.70;99.90;;;;;;6215365;23;19920;-78
2021/06/08 11:36:21;;;;;;;;;;;23.90;99.90;;;;;;6190017;23;19962;-79
2021/06/08 11:38:53;;;;;;;;;;;23.90;99.90;;;;;;6165167;23;19924;-79
2021/06/08 11:41:20;;;;;;;;;;;24.10;99.90;;;;;;6189646;23;20345;-78
2021/06/08 11:43:53;;;;;;;;;;;24.20;99.90;;;;;;6214788;23;19943;-79
2021/06/08 11:46:30;;;;;;;;;;;24.30;99.90;;;;;;6189166;23;19962;-79
2021/06/08 11:49:09;;;;;;;;;;;24.30;99.90;;;;;;6165829;23;20006;-79
2021/06/08 11:51:38;;;;;;;;;;;24.20;99.90;;;;;;6164781;23;19924;-79
2021/06/08 11:54:16;;;;;;;;;;;24.20;99.90;;;;;;6189756;23;20072;-79
2021/06/08 11:57:01;;;;;;;;;;;24.00;99.90;;;;;;6213261;23;19955;-79
2021/06/08 11:59:55;;;;;;;;;;;24.10;99.90;;;;;;6213725;23;20261;-79
2021/06/08 12:02:30;;;;;;;;;;;24.20;99.90;;;;;;6201817;23;19951;-78
2021/06/08 12:05:05;;;;;;;;;;;24.10;99.90;;;;;;6216718;23;19970;-79
2021/06/08 12:07:39;;;;;;;;;;;24.20;99.90;;;;;;6166418;23;19935;-79
2021/06/08 12:10:07;;;;;;;;;;;24.30;99.90;;;;;;6189578;23;19920;-79
2021/06/08 12:12:42;;;;;;;;;;;24.30;99.90;;;;;;6189926;23;20437;-79
2021/06/08 12:15:09;;;;;;;;;;;24.30;99.90;;;;;;6189222;23;23308;-79
2021/06/08 12:17:41;;;;;;;;;;;24.20;99.90;;;;;;6193089;23;19926;-79
2021/06/08 12:20:09;;;;;;;;;;;24.10;99.90;;;;;;6218729;23;19924;-79
2021/06/08 12:22:41;;;;;;;;;;;24.10;99.90;;;;;;6215893;23;19951;-79
2021/06/08 12:25:08;;;;;;;;;;;24.00;99.90;;;;;;6190108;23;19990;-79
2021/06/08 12:27:36;;;;;;;;;;;23.90;99.90;;;;;;6192021;23;19923;-79
2021/06/08 12:30:08;;;;;;;;;;;23.90;99.90;;;;;;6217703;23;19927;-79
2021/06/08 12:32:38;;;;;;;;;;;23.90;99.90;;;;;;6217889;23;19927;-79
2021/06/08 12:35:19;;;;;;;;;;;23.80;99.90;;;;;;6218176;23;20004;-79
2021/06/08 12:37:47;;;;;;;;;;;23.70;99.90;;;;;;6218185;23;19920;-79
2021/06/08 12:40:16;;;;;;;;;;;23.60;99.90;;;;;;6192009;23;19994;-79
2021/06/08 12:42:43;;;;;;;;;;;23.60;99.90;;;;;;6192834;23;19920;-79
2021/06/08 12:45:10;;;;;;;;;;;23.60;99.90;;;;;;6216463;23;19920;-79
2021/06/08 12:47:37;;;;;;;;;;;23.50;99.90;;;;;;6165279;23;19920;-79
2021/06/08 12:50:11;;;;;;;;;;;23.50;99.90;;;;;;6166087;23;19947;-79
2021/06/08 12:52:39;;;;;;;;;;;23.40;99.90;;;;;;6189984;23;19927;-79
2021/06/08 12:55:10;;;;;;;;;;;23.50;99.90;;;;;;6191564;23;20341;-79
2021/06/08 12:57:37;;;;;;;;;;;23.70;99.90;;;;;;6165628;23;19920;-79
2021/06/08 13:00:07;;;;;;;;;;;24.00;99.90;;;;;;6192149;23;19924;-79
2021/06/08 13:02:35;;;;;;;;;;;24.20;99.90;;;;;;6191982;23;19919;-79
2021/06/08 13:05:04;;;;;;;;;;;24.50;99.90;;;;;;6191751;23;19959;-79
2021/06/08 13:07:34;;;;;;;;;;;24.80;99.90;;;;;;6165037;23;19920;-79
2021/06/08 13:10:08;;;;;;;;;;;25.10;99.90;;;;;;6190129;23;19920;-79
2021/06/08 13:12:45;;;;;;;;;;;25.30;99.90;;;;;;6167163;23;19927;-78
2021/06/08 13:15:13;;;;;;;;;;;25.50;99.90;;;;;;6192873;23;19920;-77
2021/06/08 13:17:40;;;;;;;;;;;25.60;99.90;;;;;;6193784;23;19935;-78
2021/06/08 13:20:21;;;;;;;;;;;25.60;99.90;;;;;;6194525;23;19920;-79
2021/06/08 13:22:50;;;;;;;;;;;25.60;99.90;;;;;;6216424;23;19924;-82
2021/06/08 13:52:03;;;;;;;;;;;26.20;99.90;;;;;;6263705;22;19910;-78
2021/06/08 14:01:29;;;;;;;;;;;26.60;99.90;;;;;;6264649;22;19927;-82
2021/06/08 14:22:37;;;;;;;;;;;25.70;99.90;;;;;;6242413;22;20356;-80
2021/06/08 14:39:36;;;;;;;;;;;24.80;99.90;;;;;;6248044;22;19927;-80
2021/06/08 15:30:26;;;;;;;;;;;23.50;99.90;;;;;;6286669;22;19941;-82
2021/06/08 15:32:58;;;;;;;;;;;23.40;99.90;;;;;;6233809;23;19947;-82
2021/06/08 15:35:31;;;;;;;;;;;23.30;99.90;;;;;;6236575;23;19919;-82
2021/06/08 15:38:13;;;;;;;;;;;23.20;99.90;;;;;;6232769;23;19915;-82
2021/06/08 15:41:06;;;;;;;;;;;23.30;99.90;;;;;;6239742;23;19920;-82
2021/06/08 15:47:48;;;;;;;;;;;23.70;99.90;;;;;;6261226;22;19918;-82
2021/06/08 15:51:22;;;;;;;;;;;24.00;99.90;;;;;;6267514;23;19971;-82
2021/06/08 15:54:40;;;;;;;;;;;24.20;99.90;;;;;;6231658;23;19920;-82
2021/06/08 15:57:46;;;;;;;;;;;24.20;99.90;;;;;;6224366;23;19954;-81
2021/06/08 16:00:28;;;;;;;;;;;24.10;99.90;;;;;;6211800;23;19942;-82
2021/06/08 16:03:00;;;;;;;;;;;23.90;99.90;;;;;;6207004;23;19920;-80
2021/06/08 16:05:27;;;;;;;;;;;23.90;99.90;;;;;;6205705;23;19977;-82
2021/06/08 16:07:54;;;;;;;;;;;23.90;99.90;;;;;;6207845;23;19919;-81
2021/06/08 16:10:22;;;;;;;;;;;23.90;99.90;;;;;;6207103;23;19919;-81
2021/06/08 16:12:49;;;;;;;;;;;23.90;99.90;;;;;;6208865;23;20261;-81
2021/06/08 16:15:17;;;;;;;;;;;24.00;99.90;;;;;;6235351;23;19931;-81
2021/06/08 16:17:45;;;;;;;;;;;24.10;99.90;;;;;;6235121;23;19926;-80
2021/06/08 16:20:13;;;;;;;;;;;24.10;99.90;;;;;;6212416;23;19968;-81
2021/06/08 16:22:42;;;;;;;;;;;24.00;99.90;;;;;;6236463;23;19924;-82
2021/06/08 16:25:14;;;;;;;;;;;24.00;99.90;;;;;;6236838;23;19921;-81
2021/06/08 16:27:47;;;;;;;;;;;24.00;99.90;;;;;;6240204;23;19920;-81
2021/06/08 16:30:21;;;;;;;;;;;24.00;99.90;;;;;;6268999;23;19923;-82
2021/06/08 16:33:26;;;;;;;;;;;23.90;99.90;;;;;;6167405;23;19917;-81
2021/06/08 16:35:55;;;;;;;;;;;23.90;99.90;;;;;;6149668;23;19968;-80
2021/06/08 16:38:23;;;;;;;;;;;23.70;99.90;;;;;;6148618;23;19920;-81